createdAt,value
2023-06-17T00:02:03.053Z,96192.81
2023-06-17T00:04:30.595Z,96186.19
2023-06-17T00:06:58.185Z,96189.28
2023-06-17T00:09:27.478Z,96181.53
2023-06-17T00:11:57.795Z,96181.69
2023-06-17T00:14:26.323Z,96183.63
2023-06-17T00:16:55.442Z,96176.25
2023-06-17T00:19:23.785Z,96175.50
2023-06-17T00:21:51.416Z,96170.41
2023-06-17T00:24:19.081Z,96168.19
2023-06-17T00:26:46.814Z,96166.50
2023-06-17T00:29:16.398Z,96163.25
2023-06-17T00:31:43.926Z,96151.16
2023-06-17T00:34:12.806Z,96155.50
2023-06-17T00:36:40.357Z,96155.53
2023-06-17T00:39:08.102Z,96148.19
2023-06-17T00:41:35.683Z,96149.44
2023-06-17T00:44:04.033Z,96149.25
2023-06-17T00:46:37.762Z,96148.63
2023-06-17T00:49:06.773Z,96144.50
2023-06-17T00:51:35.920Z,96140.59
2023-06-17T00:54:03.737Z,96138.63
2023-06-17T00:56:32.788Z,96139.53
2023-06-17T00:59:03.083Z,96133.13
2023-06-17T01:01:30.922Z,96135.09
2023-06-17T01:04:00.280Z,96136.13
2023-06-17T01:06:51.693Z,96140.69
2023-06-17T01:09:25.325Z,96135.78
2023-06-17T01:11:57.609Z,96133.47
2023-06-17T01:14:26.879Z,96116.34
2023-06-17T01:16:55.773Z,96114.81
2023-06-17T01:19:26.269Z,96120.84
2023-06-17T01:21:55.870Z,96120.44
2023-06-17T01:24:30.960Z,96119.00
2023-06-17T01:27:01.187Z,96110.59
2023-06-17T01:29:30.412Z,96109.13
2023-06-17T01:31:58.950Z,96106.44
2023-06-17T01:34:34.037Z,96115.31
2023-06-17T01:37:05.380Z,96107.47
2023-06-17T01:39:37.855Z,96107.88
2023-06-17T01:42:09.054Z,96105.38
2023-06-17T01:44:38.262Z,96119.16
2023-06-17T01:47:10.414Z,96112.38
2023-06-17T01:49:38.378Z,96113.19
2023-06-17T01:52:08.115Z,96107.13
2023-06-17T01:54:37.137Z,96109.38
2023-06-17T01:57:05.170Z,96109.19
2023-06-17T01:59:32.690Z,96109.88
2023-06-17T02:02:00.388Z,96114.50
2023-06-17T02:04:27.914Z,96117.81
2023-06-17T02:06:56.132Z,96114.63
2023-06-17T02:09:23.683Z,96116.25
2023-06-17T02:11:52.636Z,96116.25
2023-06-17T02:14:20.257Z,96117.19
2023-06-17T02:16:48.642Z,96121.56
2023-06-17T02:19:16.802Z,96125.63
2023-06-17T02:21:44.795Z,96128.75
2023-06-17T02:24:12.713Z,96126.28
2023-06-17T02:26:40.667Z,96111.34
2023-06-17T02:29:09.577Z,96118.34
2023-06-17T02:31:37.175Z,96123.31
2023-06-17T02:34:04.896Z,96115.00
2023-06-17T02:36:32.465Z,96108.81
2023-06-17T02:39:00.996Z,96112.03
2023-06-17T02:41:28.538Z,96118.22
2023-06-17T02:43:56.086Z,96115.16
2023-06-17T02:46:25.340Z,96114.75
2023-06-17T02:48:52.943Z,96111.16
2023-06-17T02:51:21.250Z,96117.97
2023-06-17T02:53:48.799Z,96123.22
2023-06-17T02:56:16.406Z,96124.31
2023-06-17T02:58:44.669Z,96127.22
2023-06-17T03:01:13.935Z,96129.56
2023-06-17T03:03:43.117Z,96137.28
2023-06-17T03:06:10.756Z,96129.56
2023-06-17T03:08:40.276Z,96139.13
2023-06-17T03:11:07.818Z,96132.66
2023-06-17T03:13:35.542Z,96134.91
2023-06-17T03:16:03.839Z,96140.72
2023-06-17T03:18:31.384Z,96140.69
2023-06-17T03:21:00.257Z,96137.63
2023-06-17T03:23:27.797Z,96136.03
2023-06-17T03:25:56.082Z,96135.59
2023-06-17T03:28:23.647Z,96137.00
2023-06-17T03:30:51.680Z,96134.19
2023-06-17T03:33:19.213Z,96135.91
2023-06-17T03:35:46.752Z,96138.44
2023-06-17T03:38:15.599Z,96133.09
2023-06-17T03:40:43.122Z,96137.03
2023-06-17T03:43:10.647Z,96135.84
2023-06-17T03:45:38.221Z,96138.38
2023-06-17T03:48:06.214Z,96141.09
2023-06-17T03:50:33.819Z,96137.94
2023-06-17T03:53:01.342Z,96133.66
2023-06-17T03:55:30.332Z,96135.19
2023-06-17T03:57:57.924Z,96136.81
2023-06-17T04:00:25.425Z,96136.59
2023-06-17T04:02:53.060Z,96140.53
2023-06-17T04:05:21.435Z,96138.97
2023-06-17T04:07:50.031Z,96132.22
2023-06-17T04:10:17.634Z,96136.09
2023-06-17T04:12:46.509Z,96136.22
2023-06-17T04:15:14.138Z,96140.53
2023-06-17T04:17:41.693Z,96134.84
2023-06-17T04:20:12.303Z,96145.59
2023-06-17T04:22:40.627Z,96138.75
2023-06-17T04:25:09.773Z,96137.66
2023-06-17T04:27:37.748Z,96140.63
2023-06-17T04:30:09.646Z,96138.06
2023-06-17T04:32:40.003Z,96130.38
2023-06-17T04:35:10.151Z,96134.53
2023-06-17T04:37:37.908Z,96117.66
2023-06-17T04:40:07.922Z,96129.13
2023-06-17T04:42:35.616Z,96115.03
2023-06-17T04:45:03.764Z,96113.31
2023-06-17T04:47:32.660Z,96113.47
2023-06-17T04:50:00.239Z,96121.59
2023-06-17T04:52:30.810Z,96117.13
2023-06-17T04:54:58.314Z,96110.28
2023-06-17T04:57:25.848Z,96111.75
2023-06-17T04:59:53.359Z,96112.28
2023-06-17T05:02:20.973Z,96117.16
2023-06-17T05:04:49.838Z,96118.31
2023-06-17T05:07:17.413Z,96122.22
2023-06-17T05:09:45.026Z,96125.78
2023-06-17T05:12:12.672Z,96113.19
2023-06-17T05:14:40.835Z,96119.03
2023-06-17T05:17:08.555Z,96118.16
2023-06-17T05:19:36.134Z,96119.66
2023-06-17T05:22:05.049Z,96123.03
2023-06-17T05:24:32.684Z,96113.84
2023-06-17T05:27:00.195Z,96114.84
2023-06-17T05:29:27.702Z,96119.03
2023-06-17T05:31:55.214Z,96118.72
2023-06-17T05:34:22.750Z,96120.34
2023-06-17T05:36:50.274Z,96120.53
2023-06-17T05:39:19.178Z,96112.06
2023-06-17T05:41:46.740Z,96117.16
2023-06-17T05:44:14.296Z,96112.63
2023-06-17T05:46:41.891Z,96111.50
2023-06-17T05:49:09.516Z,96111.50
2023-06-17T05:51:37.052Z,96112.47
2023-06-17T05:54:04.714Z,96116.22
2023-06-17T05:56:33.552Z,96114.66
2023-06-17T05:59:01.122Z,96121.88
2023-06-17T06:01:28.735Z,96122.56
2023-06-17T06:03:57.049Z,96117.88
2023-06-17T06:06:24.650Z,96125.16
2023-06-17T06:08:52.760Z,96123.03
2023-06-17T06:11:20.308Z,96126.50
2023-06-17T06:13:49.166Z,96129.41
2023-06-17T06:16:17.036Z,96136.72
2023-06-17T06:18:44.618Z,96135.78
2023-06-17T06:21:12.122Z,96129.81
2023-06-17T06:23:39.730Z,96130.44
2023-06-17T06:26:07.268Z,96130.59
2023-06-17T06:28:34.780Z,96128.53
2023-06-17T06:31:04.074Z,96137.00
2023-06-17T06:33:31.593Z,96142.81
2023-06-17T06:35:59.125Z,96142.47
2023-06-17T06:38:26.643Z,96145.59
2023-06-17T06:40:54.139Z,96145.72
2023-06-17T06:43:21.687Z,96150.66
2023-06-17T06:45:49.556Z,96140.97
2023-06-17T06:48:18.559Z,96152.56
2023-06-17T06:50:46.055Z,96144.44
2023-06-17T06:53:13.619Z,96136.56
2023-06-17T06:55:41.187Z,96138.03
2023-06-17T06:58:08.718Z,96145.19
2023-06-17T07:00:36.236Z,96141.63
2023-06-17T07:03:03.840Z,96146.94
2023-06-17T07:05:32.832Z,96143.47
2023-06-17T07:08:01.881Z,96148.03
2023-06-17T07:10:29.400Z,96147.81
2023-06-17T07:12:57.209Z,96156.00
2023-06-17T07:15:24.777Z,96153.44
2023-06-17T07:17:52.457Z,96151.94
2023-06-17T07:20:20.149Z,96159.97
2023-06-17T07:22:49.316Z,96152.47
2023-06-17T07:25:17.191Z,96157.63
2023-06-17T07:27:44.736Z,96154.81
2023-06-17T07:30:13.508Z,96153.50
2023-06-17T07:32:41.082Z,96160.38
2023-06-17T07:35:09.323Z,96153.94
2023-06-17T07:37:36.933Z,96158.66
2023-06-17T07:40:07.558Z,96152.28
2023-06-17T07:42:35.113Z,96150.03
2023-06-17T07:45:02.665Z,96143.75
2023-06-17T07:47:30.255Z,96158.69
2023-06-17T07:49:57.873Z,96161.19
2023-06-17T07:52:25.453Z,96152.69
2023-06-17T07:54:53.867Z,96151.88
2023-06-17T07:57:22.705Z,96148.00
2023-06-17T07:59:50.266Z,96147.25
2023-06-17T08:02:18.742Z,96142.03
2023-06-17T08:04:46.426Z,96151.38
2023-06-17T08:07:14.158Z,96135.69
2023-06-17T08:09:41.709Z,96145.66
2023-06-17T08:12:10.035Z,96136.47
2023-06-17T08:14:38.893Z,96138.88
2023-06-17T08:17:07.270Z,96149.09
2023-06-17T08:19:35.192Z,96150.13
2023-06-17T08:22:02.721Z,96146.25
2023-06-17T08:24:30.328Z,96131.78
2023-06-17T08:26:57.936Z,96142.69
2023-06-17T08:29:26.289Z,96137.22
2023-06-17T08:31:55.501Z,96137.03
2023-06-17T08:34:23.561Z,96133.13
2023-06-17T08:36:53.947Z,96136.41
2023-06-17T08:39:21.668Z,96129.09
2023-06-17T08:41:49.560Z,96125.78
2023-06-17T08:44:17.864Z,96127.66
2023-06-17T08:46:46.687Z,96129.69
2023-06-17T08:49:15.812Z,96126.72
2023-06-17T08:51:44.934Z,96135.03
2023-06-17T08:54:12.644Z,96126.06
2023-06-17T08:56:40.524Z,96125.72
2023-06-17T08:59:08.103Z,96117.56
2023-06-17T09:01:37.415Z,96115.38
2023-06-17T09:04:05.527Z,96123.31
2023-06-17T09:06:34.368Z,96126.91
2023-06-17T09:09:01.889Z,96117.34
2023-06-17T09:11:32.009Z,96120.59
2023-06-17T09:14:00.980Z,96111.63
2023-06-17T09:16:29.709Z,96118.16
2023-06-17T09:18:57.454Z,96112.28
2023-06-17T09:21:26.258Z,96109.81
2023-06-17T09:23:56.602Z,96112.25
2023-06-17T09:26:30.408Z,96109.63
2023-06-17T09:29:03.806Z,96108.50
2023-06-17T09:31:31.772Z,96110.38
2023-06-17T09:33:59.945Z,96109.63
2023-06-17T09:36:27.587Z,96109.22
2023-06-17T09:38:56.498Z,96100.69
2023-06-17T09:41:24.849Z,96097.50
2023-06-17T09:43:53.661Z,96090.53
2023-06-17T09:46:30.818Z,96098.06
2023-06-17T09:48:59.344Z,96107.56
2023-06-17T09:51:27.432Z,96099.78
2023-06-17T09:53:56.700Z,96099.31
2023-06-17T09:56:26.120Z,96095.25
2023-06-17T09:58:57.442Z,96083.31
2023-06-17T10:01:30.222Z,96100.25
2023-06-17T10:03:57.924Z,96088.38
2023-06-17T10:06:28.186Z,96086.56
2023-06-17T10:08:57.857Z,96083.47
2023-06-17T10:11:26.979Z,96076.78
2023-06-17T10:13:58.641Z,96081.19
2023-06-17T10:16:29.254Z,96076.28
2023-06-17T10:19:01.096Z,96084.56
2023-06-17T10:21:30.843Z,96071.50
2023-06-17T10:24:02.175Z,96069.56
2023-06-17T10:26:32.052Z,96074.97
2023-06-17T10:29:01.812Z,96070.97
2023-06-17T10:31:31.173Z,96075.78
2023-06-17T10:34:01.985Z,96072.19
2023-06-17T10:36:29.712Z,96075.31
2023-06-17T10:38:59.426Z,96078.03
2023-06-17T10:41:56.966Z,96065.56
2023-06-17T10:44:29.263Z,96076.88
2023-06-17T10:46:57.840Z,96074.09
2023-06-17T10:49:26.074Z,96070.75
2023-06-17T10:51:58.956Z,96058.44
2023-06-17T10:54:32.735Z,96047.16
2023-06-17T10:57:02.793Z,96060.63
2023-06-17T10:59:33.193Z,96062.22
2023-06-17T11:02:02.381Z,96050.84
2023-06-17T11:04:31.702Z,96052.78
2023-06-17T11:06:59.735Z,96051.88
2023-06-17T11:09:27.593Z,96047.78
2023-06-17T11:11:57.158Z,96042.97
2023-06-17T11:14:25.797Z,96048.44
2023-06-17T11:16:53.586Z,96047.84
2023-06-17T11:19:21.263Z,96032.91
2023-06-17T11:21:52.022Z,96027.88
2023-06-17T11:24:19.862Z,96036.88
2023-06-17T11:26:47.399Z,96044.00
2023-06-17T11:29:16.669Z,96047.78
2023-06-17T11:31:44.990Z,96042.94
2023-06-17T11:34:13.901Z,96033.16
2023-06-17T11:36:41.600Z,96032.09
2023-06-17T11:39:10.239Z,96026.88
2023-06-17T11:41:38.364Z,96028.44
2023-06-17T11:44:06.653Z,96028.16
2023-06-17T11:46:38.389Z,96015.38
2023-06-17T11:49:07.319Z,96016.44
2023-06-17T11:51:34.813Z,96014.56
2023-06-17T11:54:06.354Z,96008.53
2023-06-17T11:56:34.411Z,96003.31
2023-06-17T11:59:03.919Z,96003.63
2023-06-17T12:01:31.553Z,96007.66
2023-06-17T12:04:00.619Z,95999.84
2023-06-17T12:06:29.086Z,95997.81
2023-06-17T12:08:57.927Z,96005.13
2023-06-17T12:11:29.327Z,96007.25
2023-06-17T12:13:57.404Z,96004.84
2023-06-17T12:16:25.782Z,95999.00
2023-06-17T12:18:53.892Z,95994.31
2023-06-17T12:21:23.457Z,95985.66
2023-06-17T12:23:52.075Z,95985.69
2023-06-17T12:26:20.228Z,95970.66
2023-06-17T12:28:47.793Z,95970.16
2023-06-17T12:31:15.643Z,95966.34
2023-06-17T12:33:43.189Z,95959.22
2023-06-17T12:36:10.835Z,95962.91
2023-06-17T12:38:40.621Z,95954.31
2023-06-17T12:41:08.727Z,95954.16
2023-06-17T12:43:36.531Z,95964.44
2023-06-17T12:46:04.156Z,95966.22
2023-06-17T12:48:34.682Z,95974.28
2023-06-17T12:51:02.384Z,95961.19
2023-06-17T12:53:30.262Z,95966.06
2023-06-17T12:55:59.725Z,95957.00
2023-06-17T12:58:28.033Z,95958.75
2023-06-17T13:00:56.779Z,95956.53
2023-06-17T13:03:24.305Z,95943.44
2023-06-17T13:05:52.826Z,95963.66
2023-06-17T13:08:20.528Z,95950.78
2023-06-17T13:10:48.124Z,95947.78
2023-06-17T13:13:17.018Z,95956.72
2023-06-17T13:15:44.811Z,95943.47
2023-06-17T13:18:13.830Z,95951.50
2023-06-17T13:20:41.527Z,95946.44
2023-06-17T13:23:09.093Z,95948.25
2023-06-17T13:25:36.795Z,95938.00
2023-06-17T13:28:04.354Z,95942.63
2023-06-17T13:30:34.304Z,95950.88
2023-06-17T13:33:02.489Z,95950.34
2023-06-17T13:35:30.059Z,95945.75
2023-06-17T13:37:59.565Z,95942.09
2023-06-17T13:40:27.152Z,95949.31
2023-06-17T13:42:54.674Z,95941.47
2023-06-17T13:45:22.377Z,95938.44
2023-06-17T13:47:51.824Z,95948.38
2023-06-17T13:50:19.681Z,95949.84
2023-06-17T13:52:47.540Z,95943.41
2023-06-17T13:55:15.066Z,95939.66
2023-06-17T13:57:42.606Z,95945.09
2023-06-17T14:00:10.740Z,95941.28
2023-06-17T14:02:38.393Z,95953.34
2023-06-17T14:05:08.551Z,95950.38
2023-06-17T14:07:36.066Z,95950.81
2023-06-17T14:10:03.969Z,95939.06
2023-06-17T14:12:32.010Z,95937.72
2023-06-17T14:14:59.523Z,95936.28
2023-06-17T14:17:27.346Z,95930.56
2023-06-17T14:19:54.939Z,95937.66
2023-06-17T14:22:24.086Z,95929.59
2023-06-17T14:24:51.621Z,95925.22
2023-06-17T14:27:40.732Z,95920.06
2023-06-17T14:30:11.781Z,95923.03
2023-06-17T14:32:39.468Z,95926.44
2023-06-17T14:35:08.018Z,95920.47
2023-06-17T14:37:37.618Z,95913.81
2023-06-17T14:40:05.801Z,95904.16
2023-06-17T14:42:33.980Z,95900.97
2023-06-17T14:45:01.525Z,95913.41
2023-06-17T14:47:29.388Z,95916.47
2023-06-17T14:49:57.054Z,95913.25
2023-06-17T14:52:26.891Z,95900.16
2023-06-17T14:54:56.058Z,95907.81
2023-06-17T14:57:23.960Z,95897.44
2023-06-17T14:59:51.600Z,95905.91
2023-06-17T15:02:27.476Z,95908.91
2023-06-17T15:04:55.040Z,95907.00
2023-06-17T15:07:22.577Z,95902.59
2023-06-17T15:09:50.081Z,95898.66
2023-06-17T15:12:18.939Z,95902.63
2023-06-17T15:14:49.375Z,95908.06
2023-06-17T15:17:17.088Z,95910.81
2023-06-17T15:19:45.258Z,95896.88
2023-06-17T15:22:13.138Z,95907.53
2023-06-17T15:24:40.772Z,95909.97
2023-06-17T15:27:08.422Z,95904.53
2023-06-17T15:29:37.288Z,95905.91
2023-06-17T15:32:05.553Z,95894.44
2023-06-17T15:34:33.066Z,95896.66
2023-06-17T15:37:00.563Z,95899.16
2023-06-17T15:39:29.580Z,95906.28
2023-06-17T15:41:57.092Z,95900.69
2023-06-17T15:44:24.696Z,95901.19
2023-06-17T15:46:53.618Z,95898.47
2023-06-17T15:49:21.159Z,95900.25
2023-06-17T15:51:48.909Z,95900.63
2023-06-17T15:54:16.470Z,95903.41
2023-06-17T15:56:47.151Z,95882.91
2023-06-17T15:59:14.964Z,95900.44
2023-06-17T16:01:42.567Z,95904.00
2023-06-17T16:04:41.887Z,95911.19
2023-06-17T16:07:10.918Z,95904.13
2023-06-17T16:09:40.173Z,95900.84
2023-06-17T16:12:08.734Z,95900.72
2023-06-17T16:14:36.784Z,95908.75
2023-06-17T16:17:06.931Z,95914.13
2023-06-17T16:19:36.879Z,95898.75
2023-06-17T16:22:08.427Z,95901.13
2023-06-17T16:24:36.000Z,95908.94
2023-06-17T16:27:04.021Z,95911.63
2023-06-17T16:29:32.059Z,95905.91
2023-06-17T16:31:59.652Z,95912.63
2023-06-17T16:34:27.217Z,95906.66
2023-06-17T16:36:56.079Z,95912.44
2023-06-17T16:39:23.653Z,95902.88
2023-06-17T16:41:51.214Z,95904.72
2023-06-17T16:44:19.195Z,95913.97
2023-06-17T16:46:47.721Z,95910.28
2023-06-17T16:49:15.321Z,95920.34
2023-06-17T16:51:42.845Z,95905.91
2023-06-17T16:54:11.956Z,95924.78
2023-06-17T16:56:39.833Z,95926.69
2023-06-17T16:59:07.403Z,95929.59
2023-06-17T17:01:35.068Z,95933.88
2023-06-17T17:04:09.524Z,95920.19
2023-06-17T17:06:37.087Z,95925.75
2023-06-17T17:09:04.839Z,95931.22
2023-06-17T17:11:33.919Z,95926.66
2023-06-17T17:14:01.711Z,95927.56
2023-06-17T17:16:29.600Z,95922.75
2023-06-17T17:18:57.203Z,95928.38
2023-06-17T17:21:25.027Z,95937.19
2023-06-17T17:23:52.669Z,95928.97
2023-06-17T17:26:20.197Z,95925.09
2023-06-17T17:28:49.069Z,95930.47
2023-06-17T17:31:16.585Z,95920.28
2023-06-17T17:33:45.114Z,95926.31
2023-06-17T17:36:13.008Z,95930.25
2023-06-17T17:38:40.859Z,95936.88
2023-06-17T17:41:08.376Z,95941.00
2023-06-17T17:43:37.114Z,95937.41
2023-06-17T17:46:07.339Z,95936.22
2023-06-17T17:48:35.759Z,95938.66
2023-06-17T17:51:03.470Z,95939.22
2023-06-17T17:53:31.852Z,95955.63
2023-06-17T17:55:59.466Z,95946.84
2023-06-17T17:58:27.006Z,95945.34
2023-06-17T18:00:56.612Z,95950.03
2023-06-17T18:03:25.621Z,95946.66
2023-06-17T18:05:53.370Z,95948.88
2023-06-17T18:08:20.899Z,95957.94
2023-06-17T18:10:48.420Z,95960.59
2023-06-17T18:13:15.942Z,95960.09
2023-06-17T18:15:43.467Z,95954.59
2023-06-17T18:18:10.998Z,95959.19
2023-06-17T18:20:39.919Z,95956.84
2023-06-17T18:23:08.199Z,95959.00
2023-06-17T18:25:35.731Z,95964.63
2023-06-17T18:28:03.247Z,95963.69
2023-06-17T18:30:31.428Z,95967.53
2023-06-17T18:32:59.000Z,95962.78
2023-06-17T18:35:26.574Z,95963.38
2023-06-17T18:37:55.418Z,95965.34
2023-06-17T18:40:23.175Z,95961.41
2023-06-17T18:42:50.943Z,95967.97
2023-06-17T18:45:18.776Z,95967.41
2023-06-17T18:47:46.342Z,95964.50
2023-06-17T18:50:13.839Z,95968.44
2023-06-17T18:52:41.357Z,95964.88
2023-06-17T18:55:10.800Z,95967.03
2023-06-17T18:57:38.411Z,95974.44
2023-06-17T19:00:07.328Z,95985.63
2023-06-17T19:02:35.052Z,95977.69
2023-06-17T19:05:05.669Z,95982.63
2023-06-17T19:07:33.745Z,95987.50
2023-06-17T19:10:01.874Z,95984.00
2023-06-17T19:12:31.785Z,95986.88
2023-06-17T19:14:59.662Z,95983.00
2023-06-17T19:17:27.483Z,95989.84
2023-06-17T19:19:55.056Z,95998.94
2023-06-17T19:22:22.612Z,95998.25
2023-06-17T19:24:50.222Z,96002.75
2023-06-17T19:27:17.746Z,96003.97
2023-06-17T19:29:46.668Z,96003.00
2023-06-17T19:32:14.232Z,96005.16
2023-06-17T19:34:41.868Z,96004.97
2023-06-17T19:37:09.432Z,96011.66
2023-06-17T19:39:36.955Z,96005.47
2023-06-17T19:42:04.928Z,96020.81
2023-06-17T19:44:34.472Z,96018.13
2023-06-17T19:47:03.377Z,96023.38
2023-06-17T19:49:31.202Z,96025.47
2023-06-17T19:51:58.727Z,96022.03
2023-06-17T19:54:26.224Z,96023.63
2023-06-17T19:56:53.911Z,96024.75
2023-06-17T19:59:21.736Z,96025.50
2023-06-17T20:01:49.349Z,96030.16
2023-06-17T20:04:18.391Z,96020.97
2023-06-17T20:06:46.026Z,96023.50
2023-06-17T20:09:13.590Z,96018.66
2023-06-17T20:11:41.128Z,96024.19
2023-06-17T20:14:08.700Z,96020.81
2023-06-17T20:16:37.080Z,96010.28
2023-06-17T20:19:04.611Z,96016.38
2023-06-17T20:21:33.459Z,96022.00
2023-06-17T20:24:01.044Z,96022.06
2023-06-17T20:26:29.878Z,96020.69
2023-06-17T20:28:57.413Z,96024.84
2023-06-17T20:31:24.987Z,96024.06
2023-06-17T20:33:52.508Z,96018.81
2023-06-17T20:36:20.070Z,96026.59
2023-06-17T20:38:48.911Z,96023.75
2023-06-17T20:41:16.524Z,96021.75
2023-06-17T20:43:44.134Z,96019.56
2023-06-17T20:46:12.091Z,96026.06
2023-06-17T20:48:39.645Z,96022.63
2023-06-17T20:51:09.668Z,96029.28
2023-06-17T20:53:37.276Z,96020.84
2023-06-17T20:56:06.340Z,96023.16
2023-06-17T20:58:33.976Z,96020.06
2023-06-17T21:01:01.550Z,96023.19
2023-06-17T21:03:29.122Z,96024.66
2023-06-17T21:05:56.885Z,96023.22
2023-06-17T21:08:24.455Z,96024.28
2023-06-17T21:10:51.991Z,96017.50
2023-06-17T21:13:20.878Z,96015.72
2023-06-17T21:15:48.403Z,96017.84
2023-06-17T21:18:16.031Z,96017.88
2023-06-17T21:20:43.552Z,96017.94
2023-06-17T21:23:11.072Z,96018.22
2023-06-17T21:25:38.626Z,96021.50
2023-06-17T21:28:06.194Z,96025.19
2023-06-17T21:30:35.083Z,96025.44
2023-06-17T21:33:02.638Z,96024.59
2023-06-17T21:35:30.238Z,96029.13
2023-06-17T21:37:59.174Z,96027.47
2023-06-17T21:40:26.818Z,96022.13
2023-06-17T21:42:54.370Z,96028.75
2023-06-17T21:45:22.474Z,96029.75
2023-06-17T21:47:51.397Z,96031.22
2023-06-17T21:50:19.259Z,96025.66
2023-06-17T21:52:46.912Z,96024.84
2023-06-17T21:55:14.491Z,96025.03
2023-06-17T21:57:42.067Z,96026.25
2023-06-17T22:00:10.570Z,96026.69
2023-06-17T22:02:38.171Z,96022.13
2023-06-17T22:05:07.774Z,96025.84
2023-06-17T22:07:35.436Z,96031.84
2023-06-17T22:10:03.134Z,96021.31
2023-06-17T22:12:31.414Z,96029.16
2023-06-17T22:15:00.170Z,96027.28
2023-06-17T22:17:28.913Z,96020.47
2023-06-17T22:19:56.447Z,96027.06
2023-06-17T22:22:25.356Z,96021.09
2023-06-17T22:24:52.856Z,96018.63
2023-06-17T22:27:20.526Z,96020.00
2023-06-17T22:29:48.101Z,96023.72
2023-06-17T22:32:15.737Z,96022.22
2023-06-17T22:34:43.244Z,96023.66
2023-06-17T22:37:10.806Z,96015.81
2023-06-17T22:39:39.676Z,96015.19
2023-06-17T22:42:08.427Z,96017.88
2023-06-17T22:44:35.980Z,96019.50
2023-06-17T22:47:03.582Z,96016.22
2023-06-17T22:49:32.302Z,96020.09
2023-06-17T22:51:59.845Z,96027.63
2023-06-17T22:54:27.359Z,96016.16
2023-06-17T22:56:56.535Z,96022.16
2023-06-17T22:59:24.381Z,96028.91
2023-06-17T23:01:52.006Z,96023.09
2023-06-17T23:04:19.530Z,96028.03
2023-06-17T23:06:47.107Z,96025.94
2023-06-17T23:09:14.614Z,96030.47
2023-06-17T23:11:42.158Z,96030.72
2023-06-17T23:14:11.060Z,96026.47
2023-06-17T23:16:38.808Z,96030.16
2023-06-17T23:19:06.368Z,96025.84
2023-06-17T23:21:35.209Z,96033.22
2023-06-17T23:24:03.199Z,96034.38
2023-06-17T23:26:30.845Z,96029.84
2023-06-17T23:28:58.699Z,96020.25
2023-06-17T23:31:27.667Z,96025.22
2023-06-17T23:33:55.419Z,96025.44
2023-06-17T23:36:24.084Z,96023.53
2023-06-17T23:38:52.724Z,96025.31
2023-06-17T23:41:20.312Z,96027.81
2023-06-17T23:43:47.833Z,96027.75
2023-06-17T23:46:16.797Z,96020.88
2023-06-17T23:48:45.743Z,96020.59
2023-06-17T23:51:13.310Z,96016.59
2023-06-17T23:53:40.857Z,96009.91
2023-06-17T23:56:08.378Z,96014.13
2023-06-17T23:58:35.935Z,96009.50
